sensor_id;sensor_type;location;lat;lon;timestamp;pressure;altitude;pressure_sealevel;temperature;humidity
42847;BME280;75159;49.916;14.536;2024-01-30T00:04:00;98502.69;;;2.04;62.18
42847;BME280;75159;49.916;14.536;2024-01-30T00:14:21;98508.03;;;1.98;61.45
42847;BME280;75159;49.916;14.536;2024-01-30T00:24:42;98500.31;;;1.98;62.55
42847;BME280;75159;49.916;14.536;2024-01-30T00:35:04;98495.47;;;1.87;62.21
42847;BME280;75159;49.916;14.536;2024-01-30T00:45:25;98489.44;;;1.88;61.92
42847;BME280;75159;49.916;14.536;2024-01-30T00:55:46;98488.56;;;1.89;62.21
42847;BME280;75159;49.916;14.536;2024-01-30T01:06:07;98490.38;;;1.86;62.26
42847;BME280;75159;49.916;14.536;2024-01-30T01:16:28;98490.47;;;1.82;62.17
42847;BME280;75159;49.916;14.536;2024-01-30T01:26:49;98466.13;;;1.94;62.77
42847;BME280;75159;49.916;14.536;2024-01-30T01:37:10;98463.41;;;1.99;62.30
42847;BME280;75159;49.916;14.536;2024-01-30T01:47:31;98470.81;;;1.80;61.40
42847;BME280;75159;49.916;14.536;2024-01-30T01:57:53;98472.53;;;1.79;61.71
42847;BME280;75159;49.916;14.536;2024-01-30T02:08:15;98459.31;;;1.92;62.00
42847;BME280;75159;49.916;14.536;2024-01-30T02:18:36;98466.34;;;1.87;61.85
42847;BME280;75159;49.916;14.536;2024-01-30T02:29:02;98455.91;;;1.61;61.89
42847;BME280;75159;49.916;14.536;2024-01-30T02:39:23;98461.13;;;1.58;61.77
42847;BME280;75159;49.916;14.536;2024-01-30T02:49:44;98463.56;;;1.31;61.41
42847;BME280;75159;49.916;14.536;2024-01-30T03:00:05;98451.97;;;1.48;62.36
42847;BME280;75159;49.916;14.536;2024-01-30T03:10:27;98445.94;;;1.49;61.90
42847;BME280;75159;49.916;14.536;2024-01-30T03:20:48;98443.53;;;1.43;61.75
42847;BME280;75159;49.916;14.536;2024-01-30T03:31:10;98450.69;;;1.31;61.67
42847;BME280;75159;49.916;14.536;2024-01-30T03:41:31;98442.72;;;1.08;61.41
42847;BME280;75159;49.916;14.536;2024-01-30T03:51:52;98434.44;;;0.98;62.02
42847;BME280;75159;49.916;14.536;2024-01-30T04:02:13;98434.59;;;0.55;61.75
42847;BME280;75159;49.916;14.536;2024-01-30T04:12:35;98426.44;;;0.74;62.36
42847;BME280;75159;49.916;14.536;2024-01-30T04:22:57;98417.50;;;0.54;61.80
42847;BME280;75159;49.916;14.536;2024-01-30T04:33:17;98422.44;;;0.64;62.83
42847;BME280;75159;49.916;14.536;2024-01-30T04:43:39;98423.78;;;0.79;62.44
42847;BME280;75159;49.916;14.536;2024-01-30T04:54:00;98429.38;;;0.60;62.45
42847;BME280;75159;49.916;14.536;2024-01-30T05:04:21;98434.09;;;0.41;62.02
42847;BME280;75159;49.916;14.536;2024-01-30T05:14:43;98432.84;;;0.57;62.34
42847;BME280;75159;49.916;14.536;2024-01-30T05:25:04;98434.31;;;0.68;62.37
42847;BME280;75159;49.916;14.536;2024-01-30T05:35:25;98441.47;;;0.55;61.60
42847;BME280;75159;49.916;14.536;2024-01-30T05:45:46;98438.84;;;0.58;61.76
42847;BME280;75159;49.916;14.536;2024-01-30T05:56:07;98442.81;;;0.70;61.71
42847;BME280;75159;49.916;14.536;2024-01-30T06:06:28;98435.84;;;0.75;61.60
42847;BME280;75159;49.916;14.536;2024-01-30T06:16:49;98433.19;;;0.43;62.72
42847;BME280;75159;49.916;14.536;2024-01-30T06:27:11;98430.53;;;0.83;61.97
42847;BME280;75159;49.916;14.536;2024-01-30T06:37:32;98433.97;;;0.45;61.62
42847;BME280;75159;49.916;14.536;2024-01-30T06:47:52;98444.75;;;0.24;62.50
42847;BME280;75159;49.916;14.536;2024-01-30T06:58:13;98446.84;;;0.44;62.03
42847;BME280;75159;49.916;14.536;2024-01-30T07:08:34;98459.88;;;-0.03;61.47
42847;BME280;75159;49.916;14.536;2024-01-30T07:18:55;98477.09;;;-0.10;62.30
42847;BME280;75159;49.916;14.536;2024-01-30T07:29:18;98478.38;;;0.10;62.49
42847;BME280;75159;49.916;14.536;2024-01-30T07:39:39;98490.28;;;0.14;62.79
42847;BME280;75159;49.916;14.536;2024-01-30T07:50:00;98489.44;;;0.13;63.00
42847;BME280;75159;49.916;14.536;2024-01-30T08:00:21;98502.00;;;0.26;63.01
42847;BME280;75159;49.916;14.536;2024-01-30T08:10:43;98493.81;;;0.08;63.58
42847;BME280;75159;49.916;14.536;2024-01-30T08:21:04;98497.22;;;0.09;64.06
42847;BME280;75159;49.916;14.536;2024-01-30T08:31:25;98487.44;;;-0.14;64.60
42847;BME280;75159;49.916;14.536;2024-01-30T08:41:47;98491.88;;;-0.23;65.03
42847;BME280;75159;49.916;14.536;2024-01-30T08:52:07;98478.50;;;-0.37;65.50
42847;BME280;75159;49.916;14.536;2024-01-30T09:14:17;98483.22;;;-0.16;66.51
42847;BME280;75159;49.916;14.536;2024-01-30T09:24:38;98484.72;;;-0.07;66.37
42847;BME280;75159;49.916;14.536;2024-01-30T09:34:59;98489.22;;;-0.17;67.14
42847;BME280;75159;49.916;14.536;2024-01-30T09:45:24;98483.31;;;-0.22;66.43
42847;BME280;75159;49.916;14.536;2024-01-30T09:55:45;98495.13;;;-0.14;67.02
42847;BME280;75159;49.916;14.536;2024-01-30T10:06:08;98489.84;;;-0.07;67.28
42847;BME280;75159;49.916;14.536;2024-01-30T10:16:30;98486.34;;;-0.01;67.25
42847;BME280;75159;49.916;14.536;2024-01-30T10:26:51;98471.25;;;-0.17;67.23
42847;BME280;75159;49.916;14.536;2024-01-30T10:37:12;98457.13;;;-0.38;67.65
42847;BME280;75159;49.916;14.536;2024-01-30T10:47:36;98451.41;;;-0.52;68.00
42847;BME280;75159;49.916;14.536;2024-01-30T10:57:58;98449.53;;;-0.42;68.24
42847;BME280;75159;49.916;14.536;2024-01-30T11:08:26;98446.72;;;-0.30;68.23
42847;BME280;75159;49.916;14.536;2024-01-30T11:18:50;98438.84;;;-0.21;68.26
42847;BME280;75159;49.916;14.536;2024-01-30T11:29:14;98434.56;;;-0.20;68.34
42847;BME280;75159;49.916;14.536;2024-01-30T11:39:37;98420.75;;;-0.14;68.17
42847;BME280;75159;49.916;14.536;2024-01-30T11:49:58;98412.88;;;-0.05;68.45
42847;BME280;75159;49.916;14.536;2024-01-30T12:00:21;98411.13;;;-0.03;68.58
42847;BME280;75159;49.916;14.536;2024-01-30T12:10:42;98397.38;;;-0.01;68.61
42847;BME280;75159;49.916;14.536;2024-01-30T12:21:03;98387.78;;;0.08;68.78
42847;BME280;75159;49.916;14.536;2024-01-30T12:31:28;98376.28;;;0.26;69.08
42847;BME280;75159;49.916;14.536;2024-01-30T12:41:49;98379.56;;;0.31;68.57
42847;BME280;75159;49.916;14.536;2024-01-30T12:52:11;98364.97;;;0.33;68.62
42847;BME280;75159;49.916;14.536;2024-01-30T13:02:33;98367.34;;;0.41;68.83
42847;BME280;75159;49.916;14.536;2024-01-30T13:12:57;98369.72;;;0.49;68.44
42847;BME280;75159;49.916;14.536;2024-01-30T13:23:17;98355.13;;;0.52;68.57
42847;BME280;75159;49.916;14.536;2024-01-30T13:33:38;98342.59;;;0.73;68.74
42847;BME280;75159;49.916;14.536;2024-01-30T13:43:59;98343.25;;;0.81;68.79
42847;BME280;75159;49.916;14.536;2024-01-30T13:54:20;98345.41;;;0.97;68.50
42847;BME280;75159;49.916;14.536;2024-01-30T14:04:41;98341.69;;;1.07;68.72
42847;BME280;75159;49.916;14.536;2024-01-30T14:15:02;98337.81;;;1.24;68.51
42847;BME280;75159;49.916;14.536;2024-01-30T14:25:35;98333.94;;;1.40;68.71
42847;BME280;75159;49.916;14.536;2024-01-30T14:35:56;98332.94;;;1.44;68.46
42847;BME280;75159;49.916;14.536;2024-01-30T14:46:17;98338.06;;;1.44;68.53
42847;BME280;75159;49.916;14.536;2024-01-30T14:56:38;98340.53;;;1.49;68.26
42847;BME280;75159;49.916;14.536;2024-01-30T15:06:59;98333.13;;;1.06;68.11
42847;BME280;75159;49.916;14.536;2024-01-30T15:17:20;98340.75;;;2.53;69.65
42847;BME280;75159;49.916;14.536;2024-01-30T15:27:42;98342.53;;;1.39;67.48
42847;BME280;75159;49.916;14.536;2024-01-30T15:38:03;98338.38;;;1.03;67.82
42847;BME280;75159;49.916;14.536;2024-01-30T15:48:25;98336.31;;;0.85;67.74
42847;BME280;75159;49.916;14.536;2024-01-30T15:58:47;98344.41;;;0.69;67.88
42847;BME280;75159;49.916;14.536;2024-01-30T16:09:10;98355.94;;;0.53;67.97
42847;BME280;75159;49.916;14.536;2024-01-30T16:19:32;98365.47;;;0.48;68.37
42847;BME280;75159;49.916;14.536;2024-01-30T16:29:54;98365.75;;;0.37;68.41
42847;BME280;75159;49.916;14.536;2024-01-30T16:40:15;98368.63;;;0.23;68.52
42847;BME280;75159;49.916;14.536;2024-01-30T16:50:36;98373.16;;;0.49;68.51
42847;BME280;75159;49.916;14.536;2024-01-30T17:00:57;98373.47;;;0.37;68.63
42847;BME280;75159;49.916;14.536;2024-01-30T17:11:18;98371.09;;;0.27;69.02
42847;BME280;75159;49.916;14.536;2024-01-30T17:21:39;98372.13;;;0.20;68.42
42847;BME280;75159;49.916;14.536;2024-01-30T17:32:00;98368.75;;;0.18;68.32
42847;BME280;75159;49.916;14.536;2024-01-30T17:42:21;98379.09;;;0.15;68.69
42847;BME280;75159;49.916;14.536;2024-01-30T17:52:44;98377.44;;;0.12;69.00
42847;BME280;75159;49.916;14.536;2024-01-30T18:03:05;98376.63;;;0.10;68.62
42847;BME280;75159;49.916;14.536;2024-01-30T18:13:26;98366.72;;;-0.07;68.95
42847;BME280;75159;49.916;14.536;2024-01-30T18:23:47;98381.16;;;-0.01;69.22
42847;BME280;75159;49.916;14.536;2024-01-30T18:34:08;98376.09;;;0.32;69.50
42847;BME280;75159;49.916;14.536;2024-01-30T18:44:29;98368.78;;;0.17;68.97
42847;BME280;75159;49.916;14.536;2024-01-30T18:54:50;98369.66;;;0.15;69.57
42847;BME280;75159;49.916;14.536;2024-01-30T19:05:11;98356.03;;;0.13;69.59
42847;BME280;75159;49.916;14.536;2024-01-30T19:15:32;98364.38;;;0.22;69.69
42847;BME280;75159;49.916;14.536;2024-01-30T19:25:53;98367.34;;;0.42;70.21
42847;BME280;75159;49.916;14.536;2024-01-30T19:36:14;98370.66;;;0.46;69.21
42847;BME280;75159;49.916;14.536;2024-01-30T19:46:36;98376.94;;;0.69;69.44
42847;BME280;75159;49.916;14.536;2024-01-30T19:56:58;98381.94;;;0.39;69.52
42847;BME280;75159;49.916;14.536;2024-01-30T20:07:20;98380.66;;;0.21;69.13
42847;BME280;75159;49.916;14.536;2024-01-30T20:17:42;98375.16;;;0.00;69.25
42847;BME280;75159;49.916;14.536;2024-01-30T20:28:03;98368.69;;;-0.18;69.39
42847;BME280;75159;49.916;14.536;2024-01-30T20:38:24;98370.44;;;-0.20;69.96
42847;BME280;75159;49.916;14.536;2024-01-30T20:48:45;98367.06;;;-0.22;69.81
42847;BME280;75159;49.916;14.536;2024-01-30T20:59:07;98355.16;;;-0.25;69.90
42847;BME280;75159;49.916;14.536;2024-01-30T21:09:28;98358.34;;;-0.13;70.13
42847;BME280;75159;49.916;14.536;2024-01-30T21:19:49;98360.91;;;-0.13;70.10
42847;BME280;75159;49.916;14.536;2024-01-30T21:30:11;98364.09;;;-0.04;70.25
42847;BME280;75159;49.916;14.536;2024-01-30T21:40:32;98346.03;;;0.01;70.22
42847;BME280;75159;49.916;14.536;2024-01-30T21:50:53;98344.97;;;0.11;70.33
42847;BME280;75159;49.916;14.536;2024-01-30T22:01:14;98335.41;;;0.17;70.35
42847;BME280;75159;49.916;14.536;2024-01-30T22:11:36;98327.91;;;0.09;69.94
42847;BME280;75159;49.916;14.536;2024-01-30T22:21:57;98337.97;;;0.18;70.52
42847;BME280;75159;49.916;14.536;2024-01-30T22:32:18;98334.59;;;0.16;70.09
42847;BME280;75159;49.916;14.536;2024-01-30T22:42:38;98352.81;;;0.40;70.63
42847;BME280;75159;49.916;14.536;2024-01-30T22:52:59;98361.16;;;0.50;70.38
42847;BME280;75159;49.916;14.536;2024-01-30T23:03:21;98359.56;;;0.79;70.04
42847;BME280;75159;49.916;14.536;2024-01-30T23:13:41;98365.91;;;0.65;69.97
42847;BME280;75159;49.916;14.536;2024-01-30T23:24:03;98360.69;;;0.68;70.35
42847;BME280;75159;49.916;14.536;2024-01-30T23:34:25;98354.53;;;0.75;69.91
42847;BME280;75159;49.916;14.536;2024-01-30T23:44:46;98355.50;;;0.70;69.82
42847;BME280;75159;49.916;14.536;2024-01-30T23:55:07;98373.13;;;0.84;70.27
